sensor_id;sensor_type;location;lat;lon;timestamp;P1;durP1;ratioP1;P2;durP2;ratioP2
30605;SDS011;17371;51.328;3.860;2022-08-11T00:01:18;8.00;;;4.28;;
30605;SDS011;17371;51.328;3.860;2022-08-11T00:03:45;8.55;;;4.13;;
30605;SDS011;17371;51.328;3.860;2022-08-11T00:06:12;8.05;;;4.40;;
30605;SDS011;17371;51.328;3.860;2022-08-11T00:08:38;5.82;;;4.35;;
30605;SDS011;17371;51.328;3.860;2022-08-11T00:11:05;6.40;;;3.93;;
30605;SDS011;17371;51.328;3.860;2022-08-11T00:13:33;8.93;;;4.03;;
30605;SDS011;17371;51.328;3.860;2022-08-11T00:16:01;10.75;;;4.15;;
30605;SDS011;17371;51.328;3.860;2022-08-11T00:18:27;8.73;;;3.92;;
30605;SDS011;17371;51.328;3.860;2022-08-11T00:20:56;10.23;;;4.10;;
30605;SDS011;17371;51.328;3.860;2022-08-11T00:23:22;6.93;;;4.10;;
30605;SDS011;17371;51.328;3.860;2022-08-11T00:25:49;7.63;;;3.75;;
30605;SDS011;17371;51.328;3.860;2022-08-11T00:28:22;7.95;;;3.97;;
30605;SDS011;17371;51.328;3.860;2022-08-11T00:30:48;5.97;;;3.70;;
30605;SDS011;17371;51.328;3.860;2022-08-11T00:33:17;6.32;;;3.85;;
30605;SDS011;17371;51.328;3.860;2022-08-11T00:35:43;8.23;;;4.13;;
30605;SDS011;17371;51.328;3.860;2022-08-11T00:38:09;6.32;;;3.85;;
30605;SDS011;17371;51.328;3.860;2022-08-11T00:40:36;8.18;;;4.40;;
30605;SDS011;17371;51.328;3.860;2022-08-11T00:43:07;9.05;;;3.65;;
30605;SDS011;17371;51.328;3.860;2022-08-11T00:45:40;5.85;;;4.30;;
30605;SDS011;17371;51.328;3.860;2022-08-11T00:48:09;7.40;;;4.17;;
30605;SDS011;17371;51.328;3.860;2022-08-11T00:50:48;7.47;;;3.97;;
30605;SDS011;17371;51.328;3.860;2022-08-11T00:53:25;7.47;;;4.10;;
30605;SDS011;17371;51.328;3.860;2022-08-11T00:56:17;8.05;;;4.57;;
30605;SDS011;17371;51.328;3.860;2022-08-11T01:07:49;5.95;;;4.45;;
30605;SDS011;17371;51.328;3.860;2022-08-11T01:13:33;6.82;;;4.40;;
30605;SDS011;17371;51.328;3.860;2022-08-11T01:16:22;9.27;;;4.50;;
30605;SDS011;17371;51.328;3.860;2022-08-11T01:19:15;10.00;;;4.05;;
30605;SDS011;17371;51.328;3.860;2022-08-11T01:25:11;5.60;;;4.15;;
30605;SDS011;17371;51.328;3.860;2022-08-11T01:28:28;7.72;;;4.53;;
30605;SDS011;17371;51.328;3.860;2022-08-11T01:31:28;7.20;;;4.32;;
30605;SDS011;17371;51.328;3.860;2022-08-11T01:34:12;12.82;;;4.45;;
30605;SDS011;17371;51.328;3.860;2022-08-11T01:37:10;9.90;;;4.22;;
30605;SDS011;17371;51.328;3.860;2022-08-11T01:43:03;8.13;;;4.20;;
30605;SDS011;17371;51.328;3.860;2022-08-11T01:45:35;8.95;;;4.13;;
30605;SDS011;17371;51.328;3.860;2022-08-11T01:48:04;7.97;;;4.28;;
30605;SDS011;17371;51.328;3.860;2022-08-11T01:53:25;7.68;;;3.90;;
30605;SDS011;17371;51.328;3.860;2022-08-11T01:55:59;6.10;;;3.70;;
30605;SDS011;17371;51.328;3.860;2022-08-11T01:58:32;6.55;;;4.15;;
30605;SDS011;17371;51.328;3.860;2022-08-11T02:01:01;7.07;;;3.97;;
30605;SDS011;17371;51.328;3.860;2022-08-11T02:03:38;7.60;;;3.95;;
30605;SDS011;17371;51.328;3.860;2022-08-11T02:06:09;7.13;;;3.92;;
30605;SDS011;17371;51.328;3.860;2022-08-11T02:08:44;8.10;;;4.22;;
30605;SDS011;17371;51.328;3.860;2022-08-11T02:11:16;8.90;;;4.18;;
30605;SDS011;17371;51.328;3.860;2022-08-11T02:13:47;9.93;;;4.10;;
30605;SDS011;17371;51.328;3.860;2022-08-11T02:16:18;10.50;;;4.10;;
30605;SDS011;17371;51.328;3.860;2022-08-11T02:18:51;6.60;;;4.10;;
30605;SDS011;17371;51.328;3.860;2022-08-11T02:21:20;7.75;;;4.00;;
30605;SDS011;17371;51.328;3.860;2022-08-11T02:23:54;7.17;;;3.93;;
30605;SDS011;17371;51.328;3.860;2022-08-11T02:26:24;10.85;;;4.50;;
30605;SDS011;17371;51.328;3.860;2022-08-11T02:28:58;7.93;;;4.53;;
30605;SDS011;17371;51.328;3.860;2022-08-11T02:31:39;6.72;;;4.22;;
30605;SDS011;17371;51.328;3.860;2022-08-11T02:34:12;8.00;;;4.18;;
30605;SDS011;17371;51.328;3.860;2022-08-11T02:36:41;7.15;;;3.95;;
30605;SDS011;17371;51.328;3.860;2022-08-11T02:39:13;10.70;;;4.57;;
30605;SDS011;17371;51.328;3.860;2022-08-11T02:41:43;8.48;;;4.28;;
30605;SDS011;17371;51.328;3.860;2022-08-11T02:44:31;7.43;;;4.40;;
30605;SDS011;17371;51.328;3.860;2022-08-11T02:47:02;8.30;;;4.30;;
30605;SDS011;17371;51.328;3.860;2022-08-11T02:49:41;10.93;;;4.90;;
30605;SDS011;17371;51.328;3.860;2022-08-11T02:52:13;7.57;;;4.18;;
30605;SDS011;17371;51.328;3.860;2022-08-11T02:54:46;7.28;;;4.38;;
30605;SDS011;17371;51.328;3.860;2022-08-11T02:57:16;7.63;;;4.40;;
30605;SDS011;17371;51.328;3.860;2022-08-11T02:59:46;7.65;;;4.45;;
30605;SDS011;17371;51.328;3.860;2022-08-11T03:02:15;8.20;;;4.63;;
30605;SDS011;17371;51.328;3.860;2022-08-11T03:04:54;9.85;;;4.38;;
30605;SDS011;17371;51.328;3.860;2022-08-11T03:07:27;9.82;;;4.38;;
30605;SDS011;17371;51.328;3.860;2022-08-11T03:09:59;7.78;;;4.53;;
30605;SDS011;17371;51.328;3.860;2022-08-11T03:12:29;9.90;;;4.60;;
30605;SDS011;17371;51.328;3.860;2022-08-11T03:15:01;12.35;;;4.38;;
30605;SDS011;17371;51.328;3.860;2022-08-11T03:17:28;8.60;;;4.88;;
30605;SDS011;17371;51.328;3.860;2022-08-11T03:20:02;9.63;;;4.90;;
30605;SDS011;17371;51.328;3.860;2022-08-11T03:22:36;8.60;;;4.85;;
30605;SDS011;17371;51.328;3.860;2022-08-11T03:25:11;8.82;;;4.90;;
30605;SDS011;17371;51.328;3.860;2022-08-11T03:27:52;9.60;;;4.82;;
30605;SDS011;17371;51.328;3.860;2022-08-11T03:30:25;6.90;;;5.00;;
30605;SDS011;17371;51.328;3.860;2022-08-11T03:32:59;8.13;;;5.00;;
30605;SDS011;17371;51.328;3.860;2022-08-11T03:35:33;10.70;;;4.90;;
30605;SDS011;17371;51.328;3.860;2022-08-11T03:38:02;6.97;;;4.72;;
30605;SDS011;17371;51.328;3.860;2022-08-11T03:40:50;9.93;;;5.10;;
30605;SDS011;17371;51.328;3.860;2022-08-11T03:43:28;9.68;;;5.38;;
30605;SDS011;17371;51.328;3.860;2022-08-11T03:46:03;12.23;;;5.50;;
30605;SDS011;17371;51.328;3.860;2022-08-11T03:48:37;8.98;;;5.18;;
30605;SDS011;17371;51.328;3.860;2022-08-11T03:51:11;9.70;;;5.28;;
30605;SDS011;17371;51.328;3.860;2022-08-11T03:53:54;9.20;;;5.30;;
30605;SDS011;17371;51.328;3.860;2022-08-11T03:56:37;8.02;;;5.45;;
30605;SDS011;17371;51.328;3.860;2022-08-11T03:59:25;12.68;;;5.22;;
30605;SDS011;17371;51.328;3.860;2022-08-11T04:02:07;9.38;;;5.65;;
30605;SDS011;17371;51.328;3.860;2022-08-11T04:04:52;7.90;;;4.97;;
30605;SDS011;17371;51.328;3.860;2022-08-11T04:13:33;10.35;;;5.10;;
30605;SDS011;17371;51.328;3.860;2022-08-11T04:16:08;11.77;;;5.30;;
30605;SDS011;17371;51.328;3.860;2022-08-11T04:21:50;15.65;;;5.50;;
30605;SDS011;17371;51.328;3.860;2022-08-11T04:24:26;9.30;;;4.78;;
30605;SDS011;17371;51.328;3.860;2022-08-11T04:30:00;11.20;;;5.25;;
30605;SDS011;17371;51.328;3.860;2022-08-11T04:32:33;10.20;;;5.13;;
30605;SDS011;17371;51.328;3.860;2022-08-11T04:35:10;12.88;;;5.50;;
30605;SDS011;17371;51.328;3.860;2022-08-11T04:41:19;11.85;;;5.40;;
30605;SDS011;17371;51.328;3.860;2022-08-11T04:47:07;9.65;;;5.15;;
30605;SDS011;17371;51.328;3.860;2022-08-11T04:49:57;10.00;;;4.78;;
30605;SDS011;17371;51.328;3.860;2022-08-11T04:52:41;11.68;;;5.55;;
30605;SDS011;17371;51.328;3.860;2022-08-11T04:58:11;11.10;;;4.80;;
30605;SDS011;17371;51.328;3.860;2022-08-11T05:00:44;10.85;;;5.38;;
30605;SDS011;17371;51.328;3.860;2022-08-11T05:06:44;10.00;;;4.85;;
30605;SDS011;17371;51.328;3.860;2022-08-11T05:09:30;9.02;;;4.85;;
30605;SDS011;17371;51.328;3.860;2022-08-11T05:12:05;9.50;;;5.05;;
30605;SDS011;17371;51.328;3.860;2022-08-11T05:14:50;9.55;;;4.80;;
30605;SDS011;17371;51.328;3.860;2022-08-11T05:17:21;9.27;;;5.07;;
30605;SDS011;17371;51.328;3.860;2022-08-11T05:19:48;16.05;;;5.55;;
30605;SDS011;17371;51.328;3.860;2022-08-11T05:22:16;9.65;;;5.07;;
30605;SDS011;17371;51.328;3.860;2022-08-11T05:24:44;7.68;;;5.03;;
30605;SDS011;17371;51.328;3.860;2022-08-11T05:27:12;8.15;;;5.20;;
30605;SDS011;17371;51.328;3.860;2022-08-11T05:29:40;9.45;;;5.50;;
30605;SDS011;17371;51.328;3.860;2022-08-11T05:32:07;11.63;;;5.00;;
30605;SDS011;17371;51.328;3.860;2022-08-11T05:34:41;11.40;;;4.95;;
30605;SDS011;17371;51.328;3.860;2022-08-11T05:37:08;10.82;;;4.85;;
30605;SDS011;17371;51.328;3.860;2022-08-11T05:39:40;8.40;;;5.10;;
30605;SDS011;17371;51.328;3.860;2022-08-11T05:42:08;9.85;;;5.47;;
30605;SDS011;17371;51.328;3.860;2022-08-11T05:44:35;7.45;;;5.10;;
30605;SDS011;17371;51.328;3.860;2022-08-11T05:47:03;11.45;;;5.20;;
30605;SDS011;17371;51.328;3.860;2022-08-11T05:49:29;10.02;;;5.20;;
30605;SDS011;17371;51.328;3.860;2022-08-11T05:51:56;9.10;;;4.72;;
30605;SDS011;17371;51.328;3.860;2022-08-11T05:54:22;8.67;;;5.00;;
30605;SDS011;17371;51.328;3.860;2022-08-11T05:56:51;10.52;;;4.60;;
30605;SDS011;17371;51.328;3.860;2022-08-11T05:59:18;8.30;;;4.72;;
30605;SDS011;17371;51.328;3.860;2022-08-11T06:01:44;10.00;;;4.60;;
30605;SDS011;17371;51.328;3.860;2022-08-11T06:04:14;14.83;;;5.33;;
30605;SDS011;17371;51.328;3.860;2022-08-11T06:06:49;11.53;;;4.90;;
30605;SDS011;17371;51.328;3.860;2022-08-11T06:09:23;10.45;;;5.05;;
30605;SDS011;17371;51.328;3.860;2022-08-11T06:11:56;8.93;;;5.07;;
30605;SDS011;17371;51.328;3.860;2022-08-11T06:14:23;10.82;;;5.25;;
30605;SDS011;17371;51.328;3.860;2022-08-11T06:16:50;9.27;;;5.65;;
30605;SDS011;17371;51.328;3.860;2022-08-11T06:19:19;12.63;;;5.70;;
30605;SDS011;17371;51.328;3.860;2022-08-11T06:21:46;9.75;;;5.97;;
30605;SDS011;17371;51.328;3.860;2022-08-11T06:24:12;13.70;;;5.80;;
30605;SDS011;17371;51.328;3.860;2022-08-11T06:26:39;17.63;;;5.43;;
30605;SDS011;17371;51.328;3.860;2022-08-11T06:29:06;10.50;;;5.25;;
30605;SDS011;17371;51.328;3.860;2022-08-11T06:31:33;13.00;;;5.80;;
30605;SDS011;17371;51.328;3.860;2022-08-11T06:34:03;11.27;;;5.77;;
30605;SDS011;17371;51.328;3.860;2022-08-11T06:36:33;9.88;;;5.57;;
30605;SDS011;17371;51.328;3.860;2022-08-11T06:39:05;9.70;;;5.75;;
30605;SDS011;17371;51.328;3.860;2022-08-11T06:41:38;10.60;;;5.25;;
30605;SDS011;17371;51.328;3.860;2022-08-11T06:44:15;14.53;;;5.50;;
30605;SDS011;17371;51.328;3.860;2022-08-11T06:46:47;12.35;;;5.50;;
30605;SDS011;17371;51.328;3.860;2022-08-11T06:49:14;15.15;;;5.25;;
30605;SDS011;17371;51.328;3.860;2022-08-11T06:51:42;14.77;;;5.65;;
30605;SDS011;17371;51.328;3.860;2022-08-11T06:54:11;9.98;;;5.32;;
30605;SDS011;17371;51.328;3.860;2022-08-11T06:56:38;12.80;;;5.57;;
30605;SDS011;17371;51.328;3.860;2022-08-11T06:59:04;16.73;;;5.70;;
30605;SDS011;17371;51.328;3.860;2022-08-11T07:01:34;11.52;;;5.28;;
30605;SDS011;17371;51.328;3.860;2022-08-11T07:04:05;12.93;;;5.40;;
30605;SDS011;17371;51.328;3.860;2022-08-11T07:06:35;18.77;;;5.63;;
30605;SDS011;17371;51.328;3.860;2022-08-11T07:09:18;11.32;;;6.15;;
30605;SDS011;17371;51.328;3.860;2022-08-11T07:11:58;11.27;;;5.35;;
30605;SDS011;17371;51.328;3.860;2022-08-11T07:14:25;9.48;;;5.72;;
30605;SDS011;17371;51.328;3.860;2022-08-11T07:16:53;10.95;;;5.95;;
30605;SDS011;17371;51.328;3.860;2022-08-11T07:19:21;10.00;;;5.93;;
30605;SDS011;17371;51.328;3.860;2022-08-11T07:21:48;10.88;;;5.65;;
30605;SDS011;17371;51.328;3.860;2022-08-11T07:24:15;12.82;;;6.43;;
30605;SDS011;17371;51.328;3.860;2022-08-11T07:26:42;13.02;;;6.03;;
30605;SDS011;17371;51.328;3.860;2022-08-11T07:29:10;11.93;;;5.67;;
30605;SDS011;17371;51.328;3.860;2022-08-11T07:31:37;13.02;;;5.78;;
30605;SDS011;17371;51.328;3.860;2022-08-11T07:34:11;9.98;;;5.72;;
30605;SDS011;17371;51.328;3.860;2022-08-11T07:36:41;13.00;;;5.25;;
30605;SDS011;17371;51.328;3.860;2022-08-11T07:39:13;10.25;;;5.22;;
30605;SDS011;17371;51.328;3.860;2022-08-11T07:41:40;8.13;;;5.30;;
30605;SDS011;17371;51.328;3.860;2022-08-11T07:44:07;11.75;;;5.47;;
30605;SDS011;17371;51.328;3.860;2022-08-11T07:46:34;15.18;;;4.97;;
30605;SDS011;17371;51.328;3.860;2022-08-11T07:49:00;9.25;;;4.80;;
30605;SDS011;17371;51.328;3.860;2022-08-11T07:51:27;17.20;;;5.23;;
30605;SDS011;17371;51.328;3.860;2022-08-11T07:53:53;12.97;;;5.13;;
30605;SDS011;17371;51.328;3.860;2022-08-11T07:56:18;10.93;;;5.07;;
30605;SDS011;17371;51.328;3.860;2022-08-11T07:58:44;9.13;;;4.37;;
30605;SDS011;17371;51.328;3.860;2022-08-11T08:01:10;13.45;;;5.13;;
30605;SDS011;17371;51.328;3.860;2022-08-11T08:03:36;12.07;;;5.50;;
30605;SDS011;17371;51.328;3.860;2022-08-11T08:06:04;10.85;;;4.80;;
30605;SDS011;17371;51.328;3.860;2022-08-11T08:08:31;11.10;;;4.10;;
30605;SDS011;17371;51.328;3.860;2022-08-11T08:10:57;9.68;;;4.00;;
30605;SDS011;17371;51.328;3.860;2022-08-11T08:13:23;10.40;;;4.00;;
30605;SDS011;17371;51.328;3.860;2022-08-11T08:15:48;14.20;;;4.05;;
30605;SDS011;17371;51.328;3.860;2022-08-11T08:18:14;8.57;;;4.37;;
30605;SDS011;17371;51.328;3.860;2022-08-11T08:20:41;11.77;;;4.00;;
30605;SDS011;17371;51.328;3.860;2022-08-11T08:23:09;7.82;;;4.25;;
30605;SDS011;17371;51.328;3.860;2022-08-11T08:25:37;7.27;;;3.53;;
30605;SDS011;17371;51.328;3.860;2022-08-11T08:28:04;8.00;;;3.90;;
30605;SDS011;17371;51.328;3.860;2022-08-11T08:30:30;13.40;;;4.18;;
30605;SDS011;17371;51.328;3.860;2022-08-11T08:32:56;6.47;;;3.80;;
30605;SDS011;17371;51.328;3.860;2022-08-11T08:35:21;9.93;;;4.07;;
30605;SDS011;17371;51.328;3.860;2022-08-11T08:37:48;12.95;;;4.07;;
30605;SDS011;17371;51.328;3.860;2022-08-11T08:40:14;12.45;;;3.90;;
30605;SDS011;17371;51.328;3.860;2022-08-11T08:42:42;15.43;;;3.80;;
30605;SDS011;17371;51.328;3.860;2022-08-11T08:45:12;9.02;;;3.65;;
30605;SDS011;17371;51.328;3.860;2022-08-11T08:47:39;7.40;;;3.70;;
30605;SDS011;17371;51.328;3.860;2022-08-11T08:50:07;6.53;;;3.60;;
30605;SDS011;17371;51.328;3.860;2022-08-11T08:52:36;8.30;;;3.28;;
30605;SDS011;17371;51.328;3.860;2022-08-11T08:55:04;7.95;;;3.70;;
30605;SDS011;17371;51.328;3.860;2022-08-11T08:57:31;7.78;;;3.55;;
30605;SDS011;17371;51.328;3.860;2022-08-11T08:59:58;9.38;;;3.45;;
30605;SDS011;17371;51.328;3.860;2022-08-11T09:02:25;7.30;;;4.00;;
30605;SDS011;17371;51.328;3.860;2022-08-11T09:04:50;11.32;;;4.55;;
30605;SDS011;17371;51.328;3.860;2022-08-11T09:07:17;11.68;;;4.10;;
30605;SDS011;17371;51.328;3.860;2022-08-11T09:09:46;8.73;;;3.97;;
30605;SDS011;17371;51.328;3.860;2022-08-11T09:12:13;8.82;;;4.55;;
30605;SDS011;17371;51.328;3.860;2022-08-11T09:14:40;7.97;;;4.47;;
30605;SDS011;17371;51.328;3.860;2022-08-11T09:17:08;9.65;;;4.18;;
30605;SDS011;17371;51.328;3.860;2022-08-11T09:19:33;11.88;;;4.20;;
30605;SDS011;17371;51.328;3.860;2022-08-11T09:21:59;9.10;;;3.90;;
30605;SDS011;17371;51.328;3.860;2022-08-11T09:24:24;9.00;;;4.17;;
30605;SDS011;17371;51.328;3.860;2022-08-11T09:26:50;7.47;;;4.10;;
30605;SDS011;17371;51.328;3.860;2022-08-11T09:29:16;12.53;;;3.83;;
30605;SDS011;17371;51.328;3.860;2022-08-11T09:31:41;11.48;;;4.45;;
30605;SDS011;17371;51.328;3.860;2022-08-11T09:34:09;7.57;;;4.20;;
30605;SDS011;17371;51.328;3.860;2022-08-11T09:36:34;7.68;;;4.70;;
30605;SDS011;17371;51.328;3.860;2022-08-11T09:39:00;9.07;;;4.10;;
30605;SDS011;17371;51.328;3.860;2022-08-11T09:41:27;10.40;;;4.28;;
30605;SDS011;17371;51.328;3.860;2022-08-11T09:43:52;11.47;;;4.23;;
30605;SDS011;17371;51.328;3.860;2022-08-11T09:46:18;10.07;;;4.15;;
30605;SDS011;17371;51.328;3.860;2022-08-11T09:48:47;9.73;;;3.90;;
30605;SDS011;17371;51.328;3.860;2022-08-11T09:51:14;8.35;;;4.50;;
30605;SDS011;17371;51.328;3.860;2022-08-11T09:53:41;9.13;;;4.30;;
30605;SDS011;17371;51.328;3.860;2022-08-11T09:56:09;8.13;;;3.80;;
30605;SDS011;17371;51.328;3.860;2022-08-11T09:58:35;10.93;;;3.97;;
30605;SDS011;17371;51.328;3.860;2022-08-11T10:01:01;8.93;;;3.77;;
30605;SDS011;17371;51.328;3.860;2022-08-11T10:03:27;13.07;;;4.25;;
30605;SDS011;17371;51.328;3.860;2022-08-11T10:05:54;9.50;;;4.38;;
30605;SDS011;17371;51.328;3.860;2022-08-11T10:08:26;10.10;;;4.50;;
30605;SDS011;17371;51.328;3.860;2022-08-11T10:10:52;11.43;;;4.20;;
30605;SDS011;17371;51.328;3.860;2022-08-11T10:13:19;7.97;;;4.30;;
30605;SDS011;17371;51.328;3.860;2022-08-11T10:15:46;9.77;;;4.40;;
30605;SDS011;17371;51.328;3.860;2022-08-11T10:18:13;7.30;;;4.10;;
30605;SDS011;17371;51.328;3.860;2022-08-11T10:20:39;9.03;;;4.03;;
30605;SDS011;17371;51.328;3.860;2022-08-11T10:23:06;8.85;;;4.10;;
30605;SDS011;17371;51.328;3.860;2022-08-11T10:25:33;9.55;;;4.13;;
30605;SDS011;17371;51.328;3.860;2022-08-11T10:28:02;8.98;;;3.80;;
30605;SDS011;17371;51.328;3.860;2022-08-11T10:30:28;10.48;;;3.85;;
30605;SDS011;17371;51.328;3.860;2022-08-11T10:32:54;9.70;;;3.87;;
30605;SDS011;17371;51.328;3.860;2022-08-11T10:35:19;7.85;;;3.00;;
30605;SDS011;17371;51.328;3.860;2022-08-11T10:37:45;11.17;;;3.77;;
30605;SDS011;17371;51.328;3.860;2022-08-11T10:40:12;7.22;;;3.25;;
30605;SDS011;17371;51.328;3.860;2022-08-11T10:42:40;8.20;;;3.40;;
30605;SDS011;17371;51.328;3.860;2022-08-11T10:45:06;7.05;;;3.03;;
30605;SDS011;17371;51.328;3.860;2022-08-11T10:47:32;7.72;;;3.00;;
30605;SDS011;17371;51.328;3.860;2022-08-11T10:49:58;11.83;;;3.60;;
30605;SDS011;17371;51.328;3.860;2022-08-11T10:52:24;6.38;;;3.47;;
30605;SDS011;17371;51.328;3.860;2022-08-11T10:54:49;6.03;;;3.30;;
30605;SDS011;17371;51.328;3.860;2022-08-11T10:57:15;12.27;;;3.30;;
30605;SDS011;17371;51.328;3.860;2022-08-11T10:59:43;11.25;;;3.60;;
30605;SDS011;17371;51.328;3.860;2022-08-11T11:02:10;12.82;;;3.70;;
30605;SDS011;17371;51.328;3.860;2022-08-11T11:04:38;9.95;;;3.33;;
30605;SDS011;17371;51.328;3.860;2022-08-11T11:07:23;11.45;;;3.40;;
30605;SDS011;17371;51.328;3.860;2022-08-11T11:09:53;5.80;;;4.17;;
30605;SDS011;17371;51.328;3.860;2022-08-11T11:12:22;7.25;;;3.72;;
30605;SDS011;17371;51.328;3.860;2022-08-11T11:14:50;8.65;;;3.60;;
30605;SDS011;17371;51.328;3.860;2022-08-11T11:17:19;14.73;;;3.58;;
30605;SDS011;17371;51.328;3.860;2022-08-11T11:19:52;4.72;;;3.30;;
30605;SDS011;17371;51.328;3.860;2022-08-11T11:22:20;5.93;;;3.50;;
30605;SDS011;17371;51.328;3.860;2022-08-11T11:24:50;7.40;;;3.42;;
30605;SDS011;17371;51.328;3.860;2022-08-11T11:27:22;8.07;;;3.33;;
30605;SDS011;17371;51.328;3.860;2022-08-11T11:29:56;8.48;;;3.10;;
30605;SDS011;17371;51.328;3.860;2022-08-11T11:32:30;6.43;;;3.45;;
30605;SDS011;17371;51.328;3.860;2022-08-11T11:38:00;8.48;;;3.00;;
30605;SDS011;17371;51.328;3.860;2022-08-11T11:40:26;7.85;;;3.05;;
30605;SDS011;17371;51.328;3.860;2022-08-11T11:42:53;8.90;;;3.03;;
30605;SDS011;17371;51.328;3.860;2022-08-11T11:45:22;8.05;;;2.90;;
30605;SDS011;17371;51.328;3.860;2022-08-11T11:47:48;8.00;;;3.10;;
30605;SDS011;17371;51.328;3.860;2022-08-11T11:50:15;8.18;;;2.97;;
30605;SDS011;17371;51.328;3.860;2022-08-11T11:52:40;7.00;;;3.30;;
30605;SDS011;17371;51.328;3.860;2022-08-11T11:55:06;6.17;;;3.20;;
30605;SDS011;17371;51.328;3.860;2022-08-11T11:57:32;7.68;;;3.42;;
30605;SDS011;17371;51.328;3.860;2022-08-11T11:59:58;11.17;;;2.87;;
30605;SDS011;17371;51.328;3.860;2022-08-11T12:02:25;8.03;;;2.97;;
30605;SDS011;17371;51.328;3.860;2022-08-11T12:04:50;7.72;;;3.00;;
30605;SDS011;17371;51.328;3.860;2022-08-11T12:07:16;7.27;;;3.27;;
30605;SDS011;17371;51.328;3.860;2022-08-11T12:09:41;9.38;;;3.40;;
30605;SDS011;17371;51.328;3.860;2022-08-11T12:12:07;5.93;;;3.30;;
30605;SDS011;17371;51.328;3.860;2022-08-11T12:14:32;8.48;;;3.20;;
30605;SDS011;17371;51.328;3.860;2022-08-11T12:16:58;8.53;;;3.13;;
30605;SDS011;17371;51.328;3.860;2022-08-11T12:19:26;6.55;;;3.28;;
30605;SDS011;17371;51.328;3.860;2022-08-11T12:21:52;6.07;;;3.20;;
30605;SDS011;17371;51.328;3.860;2022-08-11T12:24:19;6.20;;;3.47;;
30605;SDS011;17371;51.328;3.860;2022-08-11T12:26:44;6.53;;;2.95;;
30605;SDS011;17371;51.328;3.860;2022-08-11T12:29:10;8.50;;;3.53;;
30605;SDS011;17371;51.328;3.860;2022-08-11T12:31:37;8.02;;;2.97;;
30605;SDS011;17371;51.328;3.860;2022-08-11T12:34:04;4.80;;;3.30;;
30605;SDS011;17371;51.328;3.860;2022-08-11T12:36:34;6.20;;;3.20;;
30605;SDS011;17371;51.328;3.860;2022-08-11T12:39:01;10.97;;;3.40;;
30605;SDS011;17371;51.328;3.860;2022-08-11T12:41:27;7.47;;;3.50;;
30605;SDS011;17371;51.328;3.860;2022-08-11T12:43:54;11.35;;;3.45;;
30605;SDS011;17371;51.328;3.860;2022-08-11T12:46:21;10.00;;;3.50;;
30605;SDS011;17371;51.328;3.860;2022-08-11T12:48:48;5.07;;;3.20;;
30605;SDS011;17371;51.328;3.860;2022-08-11T12:51:17;6.60;;;3.50;;
30605;SDS011;17371;51.328;3.860;2022-08-11T12:53:50;5.47;;;3.22;;
30605;SDS011;17371;51.328;3.860;2022-08-11T12:56:17;5.47;;;3.45;;
30605;SDS011;17371;51.328;3.860;2022-08-11T12:58:43;7.70;;;3.07;;
30605;SDS011;17371;51.328;3.860;2022-08-11T13:01:09;5.63;;;3.28;;
30605;SDS011;17371;51.328;3.860;2022-08-11T13:03:35;10.30;;;3.33;;
30605;SDS011;17371;51.328;3.860;2022-08-11T13:06:04;5.32;;;3.30;;
30605;SDS011;17371;51.328;3.860;2022-08-11T13:08:32;5.47;;;3.40;;
30605;SDS011;17371;51.328;3.860;2022-08-11T13:10:59;11.90;;;3.10;;
30605;SDS011;17371;51.328;3.860;2022-08-11T13:13:25;11.55;;;3.25;;
30605;SDS011;17371;51.328;3.860;2022-08-11T13:15:51;7.60;;;3.30;;
30605;SDS011;17371;51.328;3.860;2022-08-11T13:18:17;12.93;;;3.60;;
30605;SDS011;17371;51.328;3.860;2022-08-11T13:20:43;6.70;;;3.33;;
30605;SDS011;17371;51.328;3.860;2022-08-11T13:23:09;8.23;;;3.70;;
30605;SDS011;17371;51.328;3.860;2022-08-11T13:25:35;7.97;;;3.50;;
30605;SDS011;17371;51.328;3.860;2022-08-11T13:28:03;6.15;;;3.10;;
30605;SDS011;17371;51.328;3.860;2022-08-11T13:30:30;4.88;;;3.00;;
30605;SDS011;17371;51.328;3.860;2022-08-11T13:32:56;6.80;;;3.47;;
30605;SDS011;17371;51.328;3.860;2022-08-11T13:35:21;8.93;;;3.47;;
30605;SDS011;17371;51.328;3.860;2022-08-11T13:37:47;7.78;;;3.20;;
30605;SDS011;17371;51.328;3.860;2022-08-11T13:40:13;7.43;;;3.30;;
30605;SDS011;17371;51.328;3.860;2022-08-11T13:42:40;5.68;;;3.17;;
30605;SDS011;17371;51.328;3.860;2022-08-11T13:45:08;5.30;;;3.42;;
30605;SDS011;17371;51.328;3.860;2022-08-11T13:47:34;7.10;;;3.25;;
30605;SDS011;17371;51.328;3.860;2022-08-11T13:50:01;5.90;;;3.30;;
30605;SDS011;17371;51.328;3.860;2022-08-11T13:52:27;7.30;;;3.60;;
30605;SDS011;17371;51.328;3.860;2022-08-11T13:54:52;8.30;;;3.33;;
30605;SDS011;17371;51.328;3.860;2022-08-11T13:57:18;4.70;;;3.33;;
30605;SDS011;17371;51.328;3.860;2022-08-11T13:59:45;7.03;;;3.45;;
30605;SDS011;17371;51.328;3.860;2022-08-11T14:02:13;10.52;;;3.78;;
30605;SDS011;17371;51.328;3.860;2022-08-11T14:04:40;6.93;;;3.23;;
30605;SDS011;17371;51.328;3.860;2022-08-11T14:07:08;9.00;;;3.50;;
30605;SDS011;17371;51.328;3.860;2022-08-11T14:09:35;8.55;;;3.22;;
30605;SDS011;17371;51.328;3.860;2022-08-11T14:12:03;6.20;;;3.03;;
30605;SDS011;17371;51.328;3.860;2022-08-11T14:14:32;4.25;;;3.20;;
30605;SDS011;17371;51.328;3.860;2022-08-11T14:17:00;9.30;;;3.53;;
30605;SDS011;17371;51.328;3.860;2022-08-11T14:19:30;8.27;;;3.20;;
30605;SDS011;17371;51.328;3.860;2022-08-11T14:21:56;7.57;;;3.47;;
30605;SDS011;17371;51.328;3.860;2022-08-11T14:24:24;7.43;;;3.42;;
30605;SDS011;17371;51.328;3.860;2022-08-11T14:26:50;4.82;;;3.00;;
30605;SDS011;17371;51.328;3.860;2022-08-11T14:29:18;4.67;;;3.10;;
30605;SDS011;17371;51.328;3.860;2022-08-11T14:31:45;6.32;;;3.35;;
30605;SDS011;17371;51.328;3.860;2022-08-11T14:34:12;6.47;;;3.00;;
30605;SDS011;17371;51.328;3.860;2022-08-11T14:36:39;8.80;;;3.20;;
30605;SDS011;17371;51.328;3.860;2022-08-11T14:39:08;6.20;;;3.22;;
30605;SDS011;17371;51.328;3.860;2022-08-11T14:41:34;4.50;;;3.03;;
30605;SDS011;17371;51.328;3.860;2022-08-11T14:44:00;7.28;;;3.10;;
30605;SDS011;17371;51.328;3.860;2022-08-11T14:46:25;7.82;;;3.50;;
30605;SDS011;17371;51.328;3.860;2022-08-11T14:48:51;5.13;;;3.10;;
30605;SDS011;17371;51.328;3.860;2022-08-11T14:51:16;4.63;;;3.10;;
30605;SDS011;17371;51.328;3.860;2022-08-11T14:53:44;10.52;;;3.30;;
30605;SDS011;17371;51.328;3.860;2022-08-11T14:56:09;8.43;;;3.30;;
30605;SDS011;17371;51.328;3.860;2022-08-11T14:58:35;8.07;;;3.67;;
30605;SDS011;17371;51.328;3.860;2022-08-11T15:01:01;8.20;;;2.93;;
30605;SDS011;17371;51.328;3.860;2022-08-11T15:03:28;5.40;;;3.00;;
30605;SDS011;17371;51.328;3.860;2022-08-11T15:05:56;6.57;;;2.95;;
30605;SDS011;17371;51.328;3.860;2022-08-11T15:08:23;6.75;;;2.80;;
30605;SDS011;17371;51.328;3.860;2022-08-11T15:10:51;4.90;;;2.80;;
30605;SDS011;17371;51.328;3.860;2022-08-11T15:13:16;6.23;;;3.20;;
30605;SDS011;17371;51.328;3.860;2022-08-11T15:15:42;4.93;;;3.00;;
30605;SDS011;17371;51.328;3.860;2022-08-11T15:18:09;6.00;;;2.80;;
30605;SDS011;17371;51.328;3.860;2022-08-11T15:20:36;6.18;;;2.83;;
30605;SDS011;17371;51.328;3.860;2022-08-11T15:23:02;5.63;;;2.80;;
30605;SDS011;17371;51.328;3.860;2022-08-11T15:25:27;6.73;;;2.80;;
30605;SDS011;17371;51.328;3.860;2022-08-11T15:27:54;4.37;;;3.10;;
30605;SDS011;17371;51.328;3.860;2022-08-11T15:30:20;3.80;;;3.00;;
30605;SDS011;17371;51.328;3.860;2022-08-11T15:32:46;4.03;;;2.90;;
30605;SDS011;17371;51.328;3.860;2022-08-11T15:35:12;4.85;;;2.90;;
30605;SDS011;17371;51.328;3.860;2022-08-11T15:37:39;5.90;;;2.80;;
30605;SDS011;17371;51.328;3.860;2022-08-11T15:40:07;5.93;;;2.80;;
30605;SDS011;17371;51.328;3.860;2022-08-11T15:42:39;4.45;;;2.75;;
30605;SDS011;17371;51.328;3.860;2022-08-11T15:45:10;4.90;;;2.47;;
30605;SDS011;17371;51.328;3.860;2022-08-11T15:47:38;5.03;;;2.67;;